Terminal Aerodrome Forecast
Issued by NWS Wilmington, OH

Current Version | Previous Version | Graphics & Text | Print | Product List | Glossary On
Versions: 1 2 3 4 5 6 7 8 9 10 11 12 13 14 15 16 17 18 19 20 21 22
000
FTUS41 KILN 220900 AAA
TAFCVG
TAF AMD
KCVG 220907Z 2209/2312 22007KT P6SM SKC
     FM221400 24010G16KT P6SM SCT050
     FM222200 31007KT P6SM SCT050
     FM230100 VRB04KT P6SM SCT200
     FM230300 06006KT P6SM SCT150=

USA.gov is the U.S. government's official web portal to all federal, state and local government web resources and services.